Martín Hidalgo

Olheiro - Athletic Bilbao
28 Nov 2027
Domingo
Processo

Personalidade

Adaptabilidade (5) Ambição (3) Controvérsia (2) Lealdade (7) Pressão (19) Profissionalismo (19) Espírito Esportivo (3) Temperamento (2)

Perfil

Estilo de Treinamento Democrático
Licença Continental B
Determinação 12
Gestão de Pessoas 6
Motivação 11
Disciplina 8
Satisfação no Trabalho
100%
Fadiga
0%
Função Olheiro
Salário 118.3K p/s
Contrato 14.03.2028

Desempenho

Comportamento Bom
Eficácia do Treinamento
56%
Desenvolvimento do Jogador
60%
Prevenção de Lesões
30%
Implementação Tática
35%

Eventos Recentes

Participou de uma reunião de recrutamento agora
Observou uma partida agora
Participou de uma reunião de recrutamento 7d atrás
Observou uma partida 7d atrás
Observou uma partida 7d atrás
Participou de uma reunião de recrutamento 14d atrás
Observou uma partida 14d atrás
Observou uma partida 14d atrás

Monitorando agora

68
Jogador Clube Status Habilidade Confiança Observado Última observação Último voto
Silas Huber Zurich Ativo 113 / 130 40% 1 02.06.2027 -
Diogo Ferreira Benfica Ativo 108 / 124 40% 1 02.06.2027 -
Salko Hamzić Sturm Graz Ativo 115 / 127 40% 1 02.06.2027 -
Manuel Salcedo Tigres Ativo 127 / 124 40% 5 31.05.2027 -
Caleb Yirenkyi Coventry City Ativo 126 / 139 40% 2 31.05.2027 -
Yussif Saidu Zaragoza Ativo 114 / 121 40% 1 31.05.2027 -
Buba Sangaré Gijón Ativo 123 / 126 40% 3 31.12.2026 -
Ansu Fati Monaco Ativo 130 / 141 40% 3 30.12.2026 -
João Pedro Chelsea Ativo 159 / 146 40% 1 28.12.2026 -
Yarek Gąsiorowski PSV Ativo 130 / 137 40% 2 27.12.2026 -
Sergi Domínguez Dinamo Zagreb Ativo 117 / 122 40% 1 27.12.2026 -
Jack Hinshelwood Brighton Ativo 150 / 145 40% 2 25.12.2026 -
Lucas Agazzi Defensor Sporting Ativo 129 / 126 40% 7 24.12.2026 -
Isaac Romero Sevilla Ativo 139 / 141 40% 3 22.12.2026 -
Antoine Semenyo Manchester City Ativo 169 / 155 40% 1 22.12.2026 -
Nico O'Reilly Manchester City Ativo 154 / 153 40% 2 19.12.2026 -
Josh King Charlton Athletic Ativo 135 / 147 40% 1 19.12.2026 -
Rayan Cherki Manchester City Ativo 169 / 162 40% 2 17.12.2026 -
Ferran Torres Paris Saint-Germain Ativo 174 / 164 40% 1 17.12.2026 -
Ez Abde Betis Ativo 145 / 151 40% 2 11.12.2026 -
Georginio Rutter Olympique Lyonnais Ativo 150 / 143 40% 3 11.12.2026 -
El Hadji Malick Diouf Brentford Ativo 145 / 139 40% 1 10.12.2026 -
Ollie Scarles West Ham United Ativo 125 / 134 40% 1 10.12.2026 -
Marcos Peña Famalicao Ativo 105 / 114 40% 1 09.12.2026 -
Samuel Lucero Defensa y Justicia Ativo 119 / 121 40% 3 08.12.2026 -
Rodrygo Real Madrid Ativo 160 / 167 40% 2 05.12.2026 -
Alan Velasco Boca Juniors Ativo 124 / 125 40% 1 05.12.2026 -
Mathias De Amorim Famalicao Ativo 129 / 128 40% 1 03.12.2026 -
Juan Giménez Rayo Vallecano Ativo 123 / 128 40% 1 03.12.2026 -
Kobbie Mainoo Manchester United Ativo 151 / 158 40% 2 30.11.2026 -
Pau Navarro Villarreal Ativo 138 / 149 40% 2 30.11.2026 -
Florián Monzón Atlas Ativo 128 / 127 40% 1 29.11.2026 -
Abel Ruiz Girona Ativo 142 / 137 40% 1 27.11.2026 -
Juan Cruz de los Santos Pacos de Ferreira Ativo 122 / 122 40% 1 27.11.2026 -
Martín Tejón Maritimo Ativo 122 / 121 40% 1 25.11.2026 -
Eliás Montiel Atlético Madrid Ativo 131 / 129 40% 2 20.11.2026 -
Noah Sadiki Sunderland Ativo 134 / 151 40% 1 20.11.2026 -
Max Svensson Penafiel Ativo 104 / 109 40% 2 18.11.2026 -
Gonzalo Fulham Ativo 150 / 142 40% 2 18.11.2026 -
Roberto Fernández Braga Ativo 148 / 140 40% 1 18.11.2026 -
Gabriel Martinelli Arsenal Ativo 169 / 163 40% 1 17.11.2026 -
Jonathan De Irastorza Levante Ativo 109 / 119 40% 1 07.11.2026 -
Iliman N'Diaye Derby County Ativo 166 / 158 40% 1 04.11.2026 -
Axel Frugone Defensor Sporting Ativo 107 / 117 40% 1 18.10.2026 -
Teo Rodríguez Pagano San Lorenzo Ativo 105 / 115 40% 1 15.10.2026 -
Matías Fernández-Pardo Newcastle United Ativo 135 / 144 40% 3 08.10.2026 -
Rome-Jayden Owusu-Oduro AZ Ativo 128 / 129 40% 1 08.10.2026 -
Désiré Doué Paris Saint-Germain Ativo 154 / 170 40% 1 08.10.2026 -
Ramiro Hernandes Cagliari Ativo 109 / 124 40% 1 05.10.2026 -
Julen Agirrezabala Racing Santander Ativo 147 / 146 40% 2 04.10.2026 -
Patrick Schulte Columbus Crew Ativo 122 / 124 40% 1 04.10.2026 -
Fernando Tapia Club America Ativo 133 / 126 40% 2 02.10.2026 -
Mark Travers Everton Ativo 138 / 138 40% 1 02.10.2026 -
Valentino Acuña Newell's Old Boys Ativo 113 / 119 40% 1 01.10.2026 -
Luka Romero Cruz Azul Ativo 127 / 130 40% 2 29.09.2026 -
Manuel Tucker Platense Ativo 103 / 118 40% 1 29.09.2026 -
Lautaro Millán Independiente Ativo 117 / 125 40% 1 28.09.2026 -
Pablo Campos Levante Ativo 122 / 132 40% 1 27.09.2026 -
Nathan Trott Cardiff City Ativo 118 / 120 40% 1 23.09.2026 -
Gianluigi Donnarumma Inter Ativo 162 / 174 40% 1 22.09.2026 -
Mateo Pérez Curci Independiente Ativo 102 / 118 40% 1 21.09.2026 -
Matías Gómez Talleres Ativo 113 / 125 40% 1 19.09.2026 -
Elías Báez Atlanta United FC Ativo 128 / 129 40% 1 16.09.2026 -
Max Weiß Girona Ativo 113 / 127 40% 1 14.09.2026 -
Alan Forneris Racing Club Ativo 116 / 122 40% 2 13.09.2026 -
Michael Cooper Sheffield United Ativo 128 / 130 40% 1 08.09.2026 -
Joan García Barcelona Ativo 163 / 166 40% 1 07.09.2026 -
James Trafford Leeds United Ativo 142 / 137 40% 1 07.09.2026 -